sensor_id;sensor_type;location;lat;lon;timestamp;P1;durP1;ratioP1;P2;durP2;ratioP2
76599;SDS011;65489;52.048;6.090;2023-05-15T00:00:13;2.60;;;2.40;;
76599;SDS011;65489;52.048;6.090;2023-05-15T00:02:41;3.42;;;2.20;;
76599;SDS011;65489;52.048;6.090;2023-05-15T00:05:07;2.00;;;1.80;;
76599;SDS011;65489;52.048;6.090;2023-05-15T00:07:33;2.20;;;2.00;;
76599;SDS011;65489;52.048;6.090;2023-05-15T00:10:00;2.05;;;1.83;;
76599;SDS011;65489;52.048;6.090;2023-05-15T00:12:25;2.55;;;2.03;;
76599;SDS011;65489;52.048;6.090;2023-05-15T00:14:51;1.80;;;1.65;;
76599;SDS011;65489;52.048;6.090;2023-05-15T00:17:17;2.25;;;2.05;;
76599;SDS011;65489;52.048;6.090;2023-05-15T00:19:43;3.90;;;2.00;;
76599;SDS011;65489;52.048;6.090;2023-05-15T00:22:08;2.00;;;1.80;;
76599;SDS011;65489;52.048;6.090;2023-05-15T00:24:34;2.20;;;2.00;;
76599;SDS011;65489;52.048;6.090;2023-05-15T00:27:00;2.45;;;2.00;;
76599;SDS011;65489;52.048;6.090;2023-05-15T00:29:26;2.10;;;1.85;;
76599;SDS011;65489;52.048;6.090;2023-05-15T00:31:51;3.08;;;2.50;;
76599;SDS011;65489;52.048;6.090;2023-05-15T00:34:17;2.05;;;1.85;;
76599;SDS011;65489;52.048;6.090;2023-05-15T00:36:42;2.40;;;2.10;;
76599;SDS011;65489;52.048;6.090;2023-05-15T00:39:09;3.13;;;2.40;;
76599;SDS011;65489;52.048;6.090;2023-05-15T00:41:35;2.40;;;2.03;;
76599;SDS011;65489;52.048;6.090;2023-05-15T00:44:01;1.83;;;1.73;;
76599;SDS011;65489;52.048;6.090;2023-05-15T00:46:27;2.55;;;2.35;;
76599;SDS011;65489;52.048;6.090;2023-05-15T00:48:55;2.33;;;2.13;;
76599;SDS011;65489;52.048;6.090;2023-05-15T00:51:22;2.00;;;1.80;;
76599;SDS011;65489;52.048;6.090;2023-05-15T00:53:48;1.85;;;1.75;;
76599;SDS011;65489;52.048;6.090;2023-05-15T00:56:16;2.15;;;1.92;;
76599;SDS011;65489;52.048;6.090;2023-05-15T00:58:44;1.92;;;1.73;;
76599;SDS011;65489;52.048;6.090;2023-05-15T01:01:10;2.10;;;1.85;;
76599;SDS011;65489;52.048;6.090;2023-05-15T01:03:36;2.25;;;1.80;;
76599;SDS011;65489;52.048;6.090;2023-05-15T01:06:01;2.75;;;1.75;;
76599;SDS011;65489;52.048;6.090;2023-05-15T01:08:44;2.40;;;2.00;;
76599;SDS011;65489;52.048;6.090;2023-05-15T01:11:11;2.15;;;1.90;;
76599;SDS011;65489;52.048;6.090;2023-05-15T01:13:38;2.75;;;2.22;;
76599;SDS011;65489;52.048;6.090;2023-05-15T01:16:04;2.78;;;1.90;;
76599;SDS011;65489;52.048;6.090;2023-05-15T01:18:30;2.03;;;1.83;;
76599;SDS011;65489;52.048;6.090;2023-05-15T01:27:16;1.70;;;1.60;;
76599;SDS011;65489;52.048;6.090;2023-05-15T01:35:40;1.90;;;1.75;;
76599;SDS011;65489;52.048;6.090;2023-05-15T01:38:29;2.58;;;2.17;;
76599;SDS011;65489;52.048;6.090;2023-05-15T01:41:01;2.22;;;1.85;;
76599;SDS011;65489;52.048;6.090;2023-05-15T01:43:31;2.28;;;2.10;;
76599;SDS011;65489;52.048;6.090;2023-05-15T01:45:57;2.08;;;1.88;;
76599;SDS011;65489;52.048;6.090;2023-05-15T01:48:24;2.47;;;2.00;;
76599;SDS011;65489;52.048;6.090;2023-05-15T01:50:50;1.42;;;1.33;;
76599;SDS011;65489;52.048;6.090;2023-05-15T01:53:18;2.17;;;1.98;;
76599;SDS011;65489;52.048;6.090;2023-05-15T01:55:44;2.00;;;1.90;;
76599;SDS011;65489;52.048;6.090;2023-05-15T01:58:10;1.80;;;1.70;;
76599;SDS011;65489;52.048;6.090;2023-05-15T02:00:36;1.88;;;1.77;;
76599;SDS011;65489;52.048;6.090;2023-05-15T02:03:03;2.00;;;1.80;;
76599;SDS011;65489;52.048;6.090;2023-05-15T02:05:29;1.95;;;1.75;;
76599;SDS011;65489;52.048;6.090;2023-05-15T02:07:55;1.80;;;1.58;;
76599;SDS011;65489;52.048;6.090;2023-05-15T02:10:21;2.20;;;1.90;;
76599;SDS011;65489;52.048;6.090;2023-05-15T02:12:47;2.13;;;1.90;;
76599;SDS011;65489;52.048;6.090;2023-05-15T02:15:14;2.00;;;1.80;;
76599;SDS011;65489;52.048;6.090;2023-05-15T02:17:45;1.80;;;1.70;;
76599;SDS011;65489;52.048;6.090;2023-05-15T02:20:10;2.25;;;1.80;;
76599;SDS011;65489;52.048;6.090;2023-05-15T02:22:36;1.95;;;1.80;;
76599;SDS011;65489;52.048;6.090;2023-05-15T02:25:02;2.25;;;2.05;;
76599;SDS011;65489;52.048;6.090;2023-05-15T02:27:31;1.80;;;1.70;;
76599;SDS011;65489;52.048;6.090;2023-05-15T02:30:10;2.00;;;1.90;;
76599;SDS011;65489;52.048;6.090;2023-05-15T02:33:02;2.70;;;1.80;;
76599;SDS011;65489;52.048;6.090;2023-05-15T02:35:36;1.80;;;1.65;;
76599;SDS011;65489;52.048;6.090;2023-05-15T02:38:11;1.63;;;1.52;;
76599;SDS011;65489;52.048;6.090;2023-05-15T02:40:41;2.95;;;1.85;;
76599;SDS011;65489;52.048;6.090;2023-05-15T02:43:08;1.65;;;1.55;;
76599;SDS011;65489;52.048;6.090;2023-05-15T02:45:34;2.10;;;1.90;;
76599;SDS011;65489;52.048;6.090;2023-05-15T02:48:00;1.70;;;1.60;;
76599;SDS011;65489;52.048;6.090;2023-05-15T02:50:26;1.75;;;1.65;;
76599;SDS011;65489;52.048;6.090;2023-05-15T02:53:02;2.05;;;1.85;;
76599;SDS011;65489;52.048;6.090;2023-05-15T02:55:28;1.75;;;1.65;;
76599;SDS011;65489;52.048;6.090;2023-05-15T02:57:54;1.70;;;1.60;;
76599;SDS011;65489;52.048;6.090;2023-05-15T03:00:20;2.45;;;2.00;;
76599;SDS011;65489;52.048;6.090;2023-05-15T03:02:46;2.67;;;1.85;;
76599;SDS011;65489;52.048;6.090;2023-05-15T03:05:12;2.00;;;1.67;;
76599;SDS011;65489;52.048;6.090;2023-05-15T03:07:37;1.98;;;1.77;;
76599;SDS011;65489;52.048;6.090;2023-05-15T03:10:03;1.77;;;1.67;;
76599;SDS011;65489;52.048;6.090;2023-05-15T03:12:29;2.05;;;1.85;;
76599;SDS011;65489;52.048;6.090;2023-05-15T03:14:55;2.17;;;1.98;;
76599;SDS011;65489;52.048;6.090;2023-05-15T03:17:20;1.90;;;1.80;;
76599;SDS011;65489;52.048;6.090;2023-05-15T03:19:46;1.95;;;1.77;;
76599;SDS011;65489;52.048;6.090;2023-05-15T03:22:12;2.25;;;2.00;;
76599;SDS011;65489;52.048;6.090;2023-05-15T03:24:37;2.30;;;1.80;;
76599;SDS011;65489;52.048;6.090;2023-05-15T03:27:03;1.92;;;1.77;;
76599;SDS011;65489;52.048;6.090;2023-05-15T03:29:29;1.80;;;1.65;;
76599;SDS011;65489;52.048;6.090;2023-05-15T03:31:54;1.80;;;1.70;;
76599;SDS011;65489;52.048;6.090;2023-05-15T03:34:20;1.77;;;1.67;;
76599;SDS011;65489;52.048;6.090;2023-05-15T03:36:45;1.90;;;1.60;;
76599;SDS011;65489;52.048;6.090;2023-05-15T03:39:11;1.95;;;1.63;;
76599;SDS011;65489;52.048;6.090;2023-05-15T03:41:37;1.95;;;1.70;;
76599;SDS011;65489;52.048;6.090;2023-05-15T03:44:02;1.65;;;1.55;;
76599;SDS011;65489;52.048;6.090;2023-05-15T03:46:28;2.10;;;1.90;;
76599;SDS011;65489;52.048;6.090;2023-05-15T03:48:53;2.25;;;2.00;;
76599;SDS011;65489;52.048;6.090;2023-05-15T03:51:20;2.25;;;1.90;;
76599;SDS011;65489;52.048;6.090;2023-05-15T03:53:46;2.03;;;1.73;;
76599;SDS011;65489;52.048;6.090;2023-05-15T03:56:11;1.80;;;1.70;;
76599;SDS011;65489;52.048;6.090;2023-05-15T03:58:37;1.75;;;1.65;;
76599;SDS011;65489;52.048;6.090;2023-05-15T04:01:02;1.63;;;1.52;;
76599;SDS011;65489;52.048;6.090;2023-05-15T04:03:28;1.90;;;1.70;;
76599;SDS011;65489;52.048;6.090;2023-05-15T04:05:53;1.75;;;1.60;;
76599;SDS011;65489;52.048;6.090;2023-05-15T04:08:18;1.35;;;1.25;;
76599;SDS011;65489;52.048;6.090;2023-05-15T04:10:44;2.10;;;1.90;;
76599;SDS011;65489;52.048;6.090;2023-05-15T04:13:10;1.88;;;1.77;;
76599;SDS011;65489;52.048;6.090;2023-05-15T04:15:35;1.95;;;1.60;;
76599;SDS011;65489;52.048;6.090;2023-05-15T04:18:01;2.53;;;2.22;;
76599;SDS011;65489;52.048;6.090;2023-05-15T04:20:26;2.17;;;1.92;;
76599;SDS011;65489;52.048;6.090;2023-05-15T04:22:52;2.25;;;1.83;;
76599;SDS011;65489;52.048;6.090;2023-05-15T04:25:17;2.10;;;1.90;;
76599;SDS011;65489;52.048;6.090;2023-05-15T04:27:44;2.00;;;1.73;;
76599;SDS011;65489;52.048;6.090;2023-05-15T04:30:10;2.05;;;1.92;;
76599;SDS011;65489;52.048;6.090;2023-05-15T04:32:36;2.03;;;1.90;;
76599;SDS011;65489;52.048;6.090;2023-05-15T04:35:03;2.20;;;1.85;;
76599;SDS011;65489;52.048;6.090;2023-05-15T04:37:29;2.42;;;1.98;;
76599;SDS011;65489;52.048;6.090;2023-05-15T04:39:55;2.75;;;1.95;;
76599;SDS011;65489;52.048;6.090;2023-05-15T04:42:20;1.88;;;1.67;;
76599;SDS011;65489;52.048;6.090;2023-05-15T04:44:46;1.95;;;1.85;;
76599;SDS011;65489;52.048;6.090;2023-05-15T04:47:11;4.72;;;2.30;;
76599;SDS011;65489;52.048;6.090;2023-05-15T04:49:38;2.88;;;2.20;;
76599;SDS011;65489;52.048;6.090;2023-05-15T04:52:04;2.20;;;2.00;;
76599;SDS011;65489;52.048;6.090;2023-05-15T04:54:29;2.10;;;1.90;;
76599;SDS011;65489;52.048;6.090;2023-05-15T04:56:55;2.53;;;2.05;;
76599;SDS011;65489;52.048;6.090;2023-05-15T04:59:20;2.10;;;1.90;;
76599;SDS011;65489;52.048;6.090;2023-05-15T05:01:46;2.50;;;1.73;;
76599;SDS011;65489;52.048;6.090;2023-05-15T05:04:11;3.70;;;2.30;;
76599;SDS011;65489;52.048;6.090;2023-05-15T05:06:37;2.35;;;2.15;;
76599;SDS011;65489;52.048;6.090;2023-05-15T05:09:02;1.75;;;1.65;;
76599;SDS011;65489;52.048;6.090;2023-05-15T05:11:28;2.30;;;2.10;;
76599;SDS011;65489;52.048;6.090;2023-05-15T05:13:53;2.15;;;1.92;;
76599;SDS011;65489;52.048;6.090;2023-05-15T05:16:19;2.00;;;1.90;;
76599;SDS011;65489;52.048;6.090;2023-05-15T05:18:44;1.95;;;1.83;;
76599;SDS011;65489;52.048;6.090;2023-05-15T05:21:10;3.58;;;2.45;;
76599;SDS011;65489;52.048;6.090;2023-05-15T05:23:35;3.55;;;2.53;;
76599;SDS011;65489;52.048;6.090;2023-05-15T05:26:00;2.13;;;1.80;;
76599;SDS011;65489;52.048;6.090;2023-05-15T05:28:26;2.47;;;2.05;;
76599;SDS011;65489;52.048;6.090;2023-05-15T05:30:52;2.42;;;2.22;;
76599;SDS011;65489;52.048;6.090;2023-05-15T05:33:17;2.10;;;1.92;;
76599;SDS011;65489;52.048;6.090;2023-05-15T05:35:43;2.28;;;2.08;;
76599;SDS011;65489;52.048;6.090;2023-05-15T05:38:09;2.25;;;1.70;;
76599;SDS011;65489;52.048;6.090;2023-05-15T05:40:34;2.05;;;1.73;;
76599;SDS011;65489;52.048;6.090;2023-05-15T05:43:02;2.00;;;1.70;;
76599;SDS011;65489;52.048;6.090;2023-05-15T05:45:27;3.20;;;2.40;;
76599;SDS011;65489;52.048;6.090;2023-05-15T05:47:56;2.15;;;1.95;;
76599;SDS011;65489;52.048;6.090;2023-05-15T05:50:22;1.80;;;1.70;;
76599;SDS011;65489;52.048;6.090;2023-05-15T05:52:48;2.35;;;1.90;;
76599;SDS011;65489;52.048;6.090;2023-05-15T05:55:14;2.30;;;1.98;;
76599;SDS011;65489;52.048;6.090;2023-05-15T05:57:39;2.03;;;1.83;;
76599;SDS011;65489;52.048;6.090;2023-05-15T06:00:05;2.15;;;1.95;;
76599;SDS011;65489;52.048;6.090;2023-05-15T06:02:35;2.22;;;2.03;;
76599;SDS011;65489;52.048;6.090;2023-05-15T06:05:02;2.65;;;2.22;;
76599;SDS011;65489;52.048;6.090;2023-05-15T06:07:28;1.80;;;1.70;;
76599;SDS011;65489;52.048;6.090;2023-05-15T06:09:53;2.15;;;1.95;;
76599;SDS011;65489;52.048;6.090;2023-05-15T06:12:19;2.28;;;2.08;;
76599;SDS011;65489;52.048;6.090;2023-05-15T06:14:45;1.67;;;1.58;;
76599;SDS011;65489;52.048;6.090;2023-05-15T06:17:10;2.78;;;1.95;;
76599;SDS011;65489;52.048;6.090;2023-05-15T06:19:36;2.28;;;2.08;;
76599;SDS011;65489;52.048;6.090;2023-05-15T06:22:01;2.97;;;1.92;;
76599;SDS011;65489;52.048;6.090;2023-05-15T06:24:27;1.90;;;1.80;;
76599;SDS011;65489;52.048;6.090;2023-05-15T06:26:52;1.80;;;1.65;;
76599;SDS011;65489;52.048;6.090;2023-05-15T06:29:18;2.13;;;1.92;;
76599;SDS011;65489;52.048;6.090;2023-05-15T06:31:43;1.85;;;1.67;;
76599;SDS011;65489;52.048;6.090;2023-05-15T06:34:09;1.98;;;1.77;;
76599;SDS011;65489;52.048;6.090;2023-05-15T06:36:35;2.47;;;2.28;;
76599;SDS011;65489;52.048;6.090;2023-05-15T06:39:01;1.80;;;1.60;;
76599;SDS011;65489;52.048;6.090;2023-05-15T06:41:26;2.20;;;1.83;;
76599;SDS011;65489;52.048;6.090;2023-05-15T06:43:52;2.22;;;1.98;;
76599;SDS011;65489;52.048;6.090;2023-05-15T06:46:17;2.17;;;1.98;;
76599;SDS011;65489;52.048;6.090;2023-05-15T06:48:43;1.88;;;1.77;;
76599;SDS011;65489;52.048;6.090;2023-05-15T06:51:09;2.00;;;1.90;;
76599;SDS011;65489;52.048;6.090;2023-05-15T06:53:34;2.05;;;1.83;;
76599;SDS011;65489;52.048;6.090;2023-05-15T06:56:00;3.65;;;2.25;;
76599;SDS011;65489;52.048;6.090;2023-05-15T06:58:25;2.55;;;2.33;;
76599;SDS011;65489;52.048;6.090;2023-05-15T07:00:51;2.10;;;1.95;;
76599;SDS011;65489;52.048;6.090;2023-05-15T07:03:16;2.97;;;2.17;;
76599;SDS011;65489;52.048;6.090;2023-05-15T07:05:42;2.30;;;2.10;;
76599;SDS011;65489;52.048;6.090;2023-05-15T07:08:08;3.28;;;2.50;;
76599;SDS011;65489;52.048;6.090;2023-05-15T07:10:33;3.65;;;1.95;;
76599;SDS011;65489;52.048;6.090;2023-05-15T07:12:59;2.40;;;2.00;;
76599;SDS011;65489;52.048;6.090;2023-05-15T07:15:24;2.28;;;1.90;;
76599;SDS011;65489;52.048;6.090;2023-05-15T07:17:50;2.75;;;2.20;;
76599;SDS011;65489;52.048;6.090;2023-05-15T07:20:15;3.42;;;2.30;;
76599;SDS011;65489;52.048;6.090;2023-05-15T07:22:41;2.72;;;2.17;;
76599;SDS011;65489;52.048;6.090;2023-05-15T07:25:07;2.70;;;1.95;;
76599;SDS011;65489;52.048;6.090;2023-05-15T07:27:32;3.45;;;2.40;;
76599;SDS011;65489;52.048;6.090;2023-05-15T07:29:58;3.17;;;2.30;;
76599;SDS011;65489;52.048;6.090;2023-05-15T07:32:23;3.63;;;2.10;;
76599;SDS011;65489;52.048;6.090;2023-05-15T07:34:49;2.28;;;1.98;;
76599;SDS011;65489;52.048;6.090;2023-05-15T07:37:15;5.72;;;2.45;;
76599;SDS011;65489;52.048;6.090;2023-05-15T07:39:40;4.32;;;2.20;;
76599;SDS011;65489;52.048;6.090;2023-05-15T07:42:06;4.63;;;2.17;;
76599;SDS011;65489;52.048;6.090;2023-05-15T07:44:31;3.92;;;2.25;;
76599;SDS011;65489;52.048;6.090;2023-05-15T07:46:57;2.20;;;2.00;;
76599;SDS011;65489;52.048;6.090;2023-05-15T07:49:23;2.92;;;2.10;;
76599;SDS011;65489;52.048;6.090;2023-05-15T07:51:48;3.65;;;2.10;;
76599;SDS011;65489;52.048;6.090;2023-05-15T07:54:14;3.55;;;2.50;;
76599;SDS011;65489;52.048;6.090;2023-05-15T07:56:39;3.45;;;2.10;;
76599;SDS011;65489;52.048;6.090;2023-05-15T07:59:05;3.80;;;2.38;;
76599;SDS011;65489;52.048;6.090;2023-05-15T08:01:34;2.95;;;2.15;;
76599;SDS011;65489;52.048;6.090;2023-05-15T08:04:04;3.53;;;2.13;;
76599;SDS011;65489;52.048;6.090;2023-05-15T08:06:38;2.63;;;2.10;;
76599;SDS011;65489;52.048;6.090;2023-05-15T08:09:05;4.20;;;1.98;;
76599;SDS011;65489;52.048;6.090;2023-05-15T08:11:40;2.63;;;1.88;;
76599;SDS011;65489;52.048;6.090;2023-05-15T08:14:15;4.47;;;2.47;;
76599;SDS011;65489;52.048;6.090;2023-05-15T08:16:41;2.97;;;2.00;;
76599;SDS011;65489;52.048;6.090;2023-05-15T08:19:07;3.88;;;2.63;;
76599;SDS011;65489;52.048;6.090;2023-05-15T08:21:34;4.28;;;2.17;;
76599;SDS011;65489;52.048;6.090;2023-05-15T08:23:59;5.57;;;2.30;;
76599;SDS011;65489;52.048;6.090;2023-05-15T08:26:25;5.30;;;2.30;;
76599;SDS011;65489;52.048;6.090;2023-05-15T08:28:51;3.47;;;2.45;;
76599;SDS011;65489;52.048;6.090;2023-05-15T08:31:16;4.32;;;2.20;;
76599;SDS011;65489;52.048;6.090;2023-05-15T08:33:41;7.15;;;2.10;;
76599;SDS011;65489;52.048;6.090;2023-05-15T08:36:07;3.33;;;2.30;;
76599;SDS011;65489;52.048;6.090;2023-05-15T08:38:33;3.28;;;2.33;;
76599;SDS011;65489;52.048;6.090;2023-05-15T08:41:01;6.15;;;2.60;;
76599;SDS011;65489;52.048;6.090;2023-05-15T08:43:35;5.07;;;2.83;;
76599;SDS011;65489;52.048;6.090;2023-05-15T08:46:04;8.27;;;3.08;;
76599;SDS011;65489;52.048;6.090;2023-05-15T08:48:30;5.50;;;3.25;;
76599;SDS011;65489;52.048;6.090;2023-05-15T08:50:56;6.43;;;3.20;;
76599;SDS011;65489;52.048;6.090;2023-05-15T08:53:22;8.63;;;3.80;;
76599;SDS011;65489;52.048;6.090;2023-05-15T08:55:48;7.72;;;3.90;;
76599;SDS011;65489;52.048;6.090;2023-05-15T08:58:14;10.75;;;4.00;;
76599;SDS011;65489;52.048;6.090;2023-05-15T09:00:41;10.60;;;4.13;;
76599;SDS011;65489;52.048;6.090;2023-05-15T09:03:11;10.48;;;3.80;;
76599;SDS011;65489;52.048;6.090;2023-05-15T09:05:38;8.93;;;4.03;;
76599;SDS011;65489;52.048;6.090;2023-05-15T09:08:03;10.25;;;4.00;;
76599;SDS011;65489;52.048;6.090;2023-05-15T09:10:30;9.45;;;3.78;;
76599;SDS011;65489;52.048;6.090;2023-05-15T09:12:55;6.07;;;3.40;;
76599;SDS011;65489;52.048;6.090;2023-05-15T09:15:22;10.70;;;3.80;;
76599;SDS011;65489;52.048;6.090;2023-05-15T09:17:49;11.50;;;4.00;;
76599;SDS011;65489;52.048;6.090;2023-05-15T09:20:24;9.27;;;3.80;;
76599;SDS011;65489;52.048;6.090;2023-05-15T09:22:50;10.60;;;4.10;;
76599;SDS011;65489;52.048;6.090;2023-05-15T09:25:30;9.88;;;3.95;;
76599;SDS011;65489;52.048;6.090;2023-05-15T09:27:59;6.50;;;3.53;;
76599;SDS011;65489;52.048;6.090;2023-05-15T09:30:25;7.53;;;3.85;;
76599;SDS011;65489;52.048;6.090;2023-05-15T09:32:51;9.43;;;3.50;;
76599;SDS011;65489;52.048;6.090;2023-05-15T09:35:36;9.02;;;3.80;;
76599;SDS011;65489;52.048;6.090;2023-05-15T09:38:05;7.88;;;3.78;;
76599;SDS011;65489;52.048;6.090;2023-05-15T09:40:35;8.23;;;3.65;;
76599;SDS011;65489;52.048;6.090;2023-05-15T09:43:02;6.57;;;2.90;;
76599;SDS011;65489;52.048;6.090;2023-05-15T09:45:28;8.27;;;3.33;;
76599;SDS011;65489;52.048;6.090;2023-05-15T09:48:03;6.43;;;2.95;;
76599;SDS011;65489;52.048;6.090;2023-05-15T09:52:58;5.20;;;3.22;;
76599;SDS011;65489;52.048;6.090;2023-05-15T09:55:24;5.22;;;2.80;;
76599;SDS011;65489;52.048;6.090;2023-05-15T09:58:09;7.40;;;3.15;;
76599;SDS011;65489;52.048;6.090;2023-05-15T10:00:38;6.07;;;2.97;;
76599;SDS011;65489;52.048;6.090;2023-05-15T10:03:05;5.32;;;2.92;;
76599;SDS011;65489;52.048;6.090;2023-05-15T10:05:31;5.53;;;3.22;;
76599;SDS011;65489;52.048;6.090;2023-05-15T10:07:57;4.63;;;3.10;;
76599;SDS011;65489;52.048;6.090;2023-05-15T10:10:23;5.30;;;2.75;;
76599;SDS011;65489;52.048;6.090;2023-05-15T10:12:49;6.78;;;3.10;;
76599;SDS011;65489;52.048;6.090;2023-05-15T10:15:16;5.45;;;3.28;;
76599;SDS011;65489;52.048;6.090;2023-05-15T10:17:42;6.25;;;3.45;;
76599;SDS011;65489;52.048;6.090;2023-05-15T10:20:08;4.38;;;2.70;;
76599;SDS011;65489;52.048;6.090;2023-05-15T10:22:38;8.73;;;3.17;;
76599;SDS011;65489;52.048;6.090;2023-05-15T10:25:14;4.60;;;2.75;;
76599;SDS011;65489;52.048;6.090;2023-05-15T10:27:59;5.30;;;2.60;;
76599;SDS011;65489;52.048;6.090;2023-05-15T10:30:25;3.20;;;2.40;;
76599;SDS011;65489;52.048;6.090;2023-05-15T10:32:52;3.70;;;2.38;;
76599;SDS011;65489;52.048;6.090;2023-05-15T10:35:17;7.25;;;3.10;;
76599;SDS011;65489;52.048;6.090;2023-05-15T10:37:44;3.35;;;2.63;;
76599;SDS011;65489;52.048;6.090;2023-05-15T10:40:11;4.65;;;2.28;;
76599;SDS011;65489;52.048;6.090;2023-05-15T10:42:37;4.78;;;2.50;;
76599;SDS011;65489;52.048;6.090;2023-05-15T10:45:06;3.85;;;3.05;;
76599;SDS011;65489;52.048;6.090;2023-05-15T10:47:31;4.28;;;3.00;;
76599;SDS011;65489;52.048;6.090;2023-05-15T10:49:57;3.97;;;2.90;;
76599;SDS011;65489;52.048;6.090;2023-05-15T10:52:23;4.38;;;2.60;;
76599;SDS011;65489;52.048;6.090;2023-05-15T10:54:48;4.75;;;2.60;;
76599;SDS011;65489;52.048;6.090;2023-05-15T10:57:14;4.88;;;2.78;;
76599;SDS011;65489;52.048;6.090;2023-05-15T10:59:40;3.58;;;2.70;;
76599;SDS011;65489;52.048;6.090;2023-05-15T11:02:19;3.75;;;2.60;;
76599;SDS011;65489;52.048;6.090;2023-05-15T11:04:46;3.45;;;2.58;;
76599;SDS011;65489;52.048;6.090;2023-05-15T11:07:12;5.40;;;2.60;;
76599;SDS011;65489;52.048;6.090;2023-05-15T11:09:39;3.70;;;2.80;;
76599;SDS011;65489;52.048;6.090;2023-05-15T11:12:09;3.15;;;2.70;;
76599;SDS011;65489;52.048;6.090;2023-05-15T11:14:43;4.32;;;2.53;;
76599;SDS011;65489;52.048;6.090;2023-05-15T11:17:30;4.40;;;2.35;;
76599;SDS011;65489;52.048;6.090;2023-05-15T11:19:57;4.78;;;2.42;;
76599;SDS011;65489;52.048;6.090;2023-05-15T11:27:23;3.85;;;2.42;;
76599;SDS011;65489;52.048;6.090;2023-05-15T11:35:46;2.33;;;1.90;;
76599;SDS011;65489;52.048;6.090;2023-05-15T11:38:16;3.17;;;1.90;;
76599;SDS011;65489;52.048;6.090;2023-05-15T11:43:44;3.33;;;2.05;;
76599;SDS011;65489;52.048;6.090;2023-05-15T11:46:11;2.97;;;2.47;;
76599;SDS011;65489;52.048;6.090;2023-05-15T11:48:39;4.60;;;3.45;;
76599;SDS011;65489;52.048;6.090;2023-05-15T11:51:14;2.80;;;2.30;;
76599;SDS011;65489;52.048;6.090;2023-05-15T11:53:50;2.63;;;2.20;;
76599;SDS011;65489;52.048;6.090;2023-05-15T11:58:51;2.95;;;2.20;;
76599;SDS011;65489;52.048;6.090;2023-05-15T12:01:21;2.45;;;1.95;;
76599;SDS011;65489;52.048;6.090;2023-05-15T12:03:47;2.38;;;2.03;;
76599;SDS011;65489;52.048;6.090;2023-05-15T12:06:15;2.53;;;2.22;;
76599;SDS011;65489;52.048;6.090;2023-05-15T12:08:41;2.55;;;2.00;;
76599;SDS011;65489;52.048;6.090;2023-05-15T12:11:07;2.70;;;2.13;;
76599;SDS011;65489;52.048;6.090;2023-05-15T12:13:33;2.28;;;1.73;;
76599;SDS011;65489;52.048;6.090;2023-05-15T12:15:59;3.25;;;2.08;;
76599;SDS011;65489;52.048;6.090;2023-05-15T12:20:55;2.70;;;2.10;;
76599;SDS011;65489;52.048;6.090;2023-05-15T12:23:21;2.75;;;1.73;;
76599;SDS011;65489;52.048;6.090;2023-05-15T12:25:48;2.80;;;2.40;;
76599;SDS011;65489;52.048;6.090;2023-05-15T12:28:15;2.85;;;1.92;;
76599;SDS011;65489;52.048;6.090;2023-05-15T12:30:41;2.97;;;1.85;;
76599;SDS011;65489;52.048;6.090;2023-05-15T12:33:07;3.65;;;2.80;;
76599;SDS011;65489;52.048;6.090;2023-05-15T12:35:34;2.92;;;1.90;;
76599;SDS011;65489;52.048;6.090;2023-05-15T12:38:03;3.10;;;2.20;;
76599;SDS011;65489;52.048;6.090;2023-05-15T12:42:57;2.13;;;1.73;;
76599;SDS011;65489;52.048;6.090;2023-05-15T12:45:22;3.00;;;2.20;;
76599;SDS011;65489;52.048;6.090;2023-05-15T12:47:49;2.90;;;2.15;;
76599;SDS011;65489;52.048;6.090;2023-05-15T12:50:21;2.08;;;1.55;;
76599;SDS011;65489;52.048;6.090;2023-05-15T12:52:54;3.17;;;2.47;;
76599;SDS011;65489;52.048;6.090;2023-05-15T12:55:24;2.10;;;1.90;;
76599;SDS011;65489;52.048;6.090;2023-05-15T12:58:00;3.22;;;2.55;;
76599;SDS011;65489;52.048;6.090;2023-05-15T13:00:30;3.38;;;2.53;;
76599;SDS011;65489;52.048;6.090;2023-05-15T13:02:56;3.20;;;2.15;;
76599;SDS011;65489;52.048;6.090;2023-05-15T13:05:22;2.95;;;2.10;;
76599;SDS011;65489;52.048;6.090;2023-05-15T13:07:51;2.40;;;2.20;;
76599;SDS011;65489;52.048;6.090;2023-05-15T13:10:19;2.65;;;2.00;;
76599;SDS011;65489;52.048;6.090;2023-05-15T13:12:46;4.85;;;2.97;;
76599;SDS011;65489;52.048;6.090;2023-05-15T13:17:46;2.95;;;2.20;;
76599;SDS011;65489;52.048;6.090;2023-05-15T13:20:12;2.90;;;2.55;;
76599;SDS011;65489;52.048;6.090;2023-05-15T13:22:37;2.67;;;2.08;;
76599;SDS011;65489;52.048;6.090;2023-05-15T13:25:03;2.88;;;2.30;;
76599;SDS011;65489;52.048;6.090;2023-05-15T13:27:29;2.58;;;2.38;;
76599;SDS011;65489;52.048;6.090;2023-05-15T13:29:54;3.35;;;2.53;;
76599;SDS011;65489;52.048;6.090;2023-05-15T13:32:20;2.97;;;2.30;;
76599;SDS011;65489;52.048;6.090;2023-05-15T13:34:46;3.20;;;2.90;;
76599;SDS011;65489;52.048;6.090;2023-05-15T13:37:12;3.47;;;3.17;;
76599;SDS011;65489;52.048;6.090;2023-05-15T13:39:38;3.65;;;2.90;;
76599;SDS011;65489;52.048;6.090;2023-05-15T13:42:04;3.58;;;3.25;;
76599;SDS011;65489;52.048;6.090;2023-05-15T13:44:29;2.38;;;2.17;;
76599;SDS011;65489;52.048;6.090;2023-05-15T13:46:56;2.75;;;2.38;;
76599;SDS011;65489;52.048;6.090;2023-05-15T13:49:22;2.28;;;2.08;;
76599;SDS011;65489;52.048;6.090;2023-05-15T13:51:48;2.42;;;1.95;;
76599;SDS011;65489;52.048;6.090;2023-05-15T13:54:13;2.20;;;1.67;;
76599;SDS011;65489;52.048;6.090;2023-05-15T13:56:38;1.90;;;1.48;;
76599;SDS011;65489;52.048;6.090;2023-05-15T13:59:04;1.60;;;1.50;;
76599;SDS011;65489;52.048;6.090;2023-05-15T14:01:30;2.03;;;1.70;;
76599;SDS011;65489;52.048;6.090;2023-05-15T14:03:55;3.17;;;2.10;;
76599;SDS011;65489;52.048;6.090;2023-05-15T14:06:20;2.80;;;2.33;;
76599;SDS011;65489;52.048;6.090;2023-05-15T14:08:46;3.15;;;1.90;;
76599;SDS011;65489;52.048;6.090;2023-05-15T14:11:11;2.67;;;2.40;;
76599;SDS011;65489;52.048;6.090;2023-05-15T14:13:37;1.92;;;1.50;;
76599;SDS011;65489;52.048;6.090;2023-05-15T14:16:03;1.90;;;1.77;;
76599;SDS011;65489;52.048;6.090;2023-05-15T14:18:28;1.63;;;1.48;;
76599;SDS011;65489;52.048;6.090;2023-05-15T14:20:54;2.15;;;1.95;;
76599;SDS011;65489;52.048;6.090;2023-05-15T14:23:20;2.20;;;2.00;;
76599;SDS011;65489;52.048;6.090;2023-05-15T14:25:45;2.22;;;1.90;;
76599;SDS011;65489;52.048;6.090;2023-05-15T14:28:11;2.58;;;2.03;;
76599;SDS011;65489;52.048;6.090;2023-05-15T14:30:37;2.10;;;1.90;;
76599;SDS011;65489;52.048;6.090;2023-05-15T14:33:02;1.67;;;1.48;;
76599;SDS011;65489;52.048;6.090;2023-05-15T14:35:27;2.53;;;1.52;;
76599;SDS011;65489;52.048;6.090;2023-05-15T14:37:53;1.70;;;1.60;;
76599;SDS011;65489;52.048;6.090;2023-05-15T14:40:18;3.30;;;1.80;;
76599;SDS011;65489;52.048;6.090;2023-05-15T14:42:44;2.22;;;1.75;;
76599;SDS011;65489;52.048;6.090;2023-05-15T14:45:09;2.55;;;2.10;;
76599;SDS011;65489;52.048;6.090;2023-05-15T14:47:35;1.80;;;1.70;;
76599;SDS011;65489;52.048;6.090;2023-05-15T14:50:00;3.33;;;1.85;;
76599;SDS011;65489;52.048;6.090;2023-05-15T14:52:26;4.65;;;2.40;;
76599;SDS011;65489;52.048;6.090;2023-05-15T14:54:51;2.20;;;2.00;;
76599;SDS011;65489;52.048;6.090;2023-05-15T14:57:17;2.42;;;1.70;;
76599;SDS011;65489;52.048;6.090;2023-05-15T14:59:45;2.83;;;2.58;;
76599;SDS011;65489;52.048;6.090;2023-05-15T15:02:11;2.53;;;2.00;;
76599;SDS011;65489;52.048;6.090;2023-05-15T15:04:36;2.28;;;2.08;;
76599;SDS011;65489;52.048;6.090;2023-05-15T15:07:02;2.30;;;2.10;;
76599;SDS011;65489;52.048;6.090;2023-05-15T15:09:28;3.08;;;2.78;;
76599;SDS011;65489;52.048;6.090;2023-05-15T15:11:53;1.88;;;1.73;;
76599;SDS011;65489;52.048;6.090;2023-05-15T15:14:19;2.28;;;1.75;;
76599;SDS011;65489;52.048;6.090;2023-05-15T15:16:44;2.53;;;2.17;;
76599;SDS011;65489;52.048;6.090;2023-05-15T15:19:10;2.22;;;2.03;;
76599;SDS011;65489;52.048;6.090;2023-05-15T15:21:36;1.92;;;1.83;;
76599;SDS011;65489;52.048;6.090;2023-05-15T15:24:02;1.67;;;1.55;;